createdAt,value
2023-03-08T06:03:28.251Z,0.68
2023-03-08T06:05:55.516Z,0.69
2023-03-08T06:08:23.135Z,0.70
2023-03-08T06:10:50.292Z,0.70
2023-03-08T06:13:17.524Z,0.71
2023-03-08T06:15:44.338Z,0.71
2023-03-08T06:18:12.640Z,0.73
2023-03-08T06:20:40.539Z,0.71
2023-03-08T06:23:07.468Z,0.72
2023-03-08T06:25:34.186Z,0.70
2023-03-08T06:28:01.530Z,0.68
2023-03-08T06:30:38.240Z,0.65
2023-03-08T06:33:06.165Z,0.66
2023-03-08T06:35:32.805Z,0.67
2023-03-08T06:38:02.364Z,0.69
2023-03-08T06:40:30.451Z,0.73
2023-03-08T06:42:57.799Z,0.73
2023-03-08T06:45:24.386Z,0.76
2023-03-08T06:47:51.689Z,0.74
2023-03-08T06:50:18.778Z,0.76
2023-03-08T06:52:48.595Z,0.78
2023-03-08T06:55:19.718Z,0.79
2023-03-08T06:57:47.274Z,0.76
2023-03-08T07:00:14.457Z,0.73
2023-03-08T07:02:41.561Z,0.72
2023-03-08T07:05:08.575Z,0.72
2023-03-08T07:07:37.003Z,0.72
2023-03-08T07:10:04.352Z,0.74
2023-03-08T07:12:32.606Z,0.72
2023-03-08T07:14:59.234Z,0.75
2023-03-08T07:17:26.484Z,0.76
2023-03-08T07:19:53.047Z,0.77
2023-03-08T07:22:20.239Z,0.82
2023-03-08T07:24:49.675Z,0.87
2023-03-08T07:27:17.003Z,0.83
2023-03-08T07:29:43.610Z,0.84
2023-03-08T07:32:10.905Z,0.87
2023-03-08T07:34:37.507Z,0.96
2023-03-08T07:37:04.771Z,0.97
2023-03-08T07:39:31.385Z,0.98
2023-03-08T07:41:58.581Z,0.99
2023-03-08T07:44:27.063Z,0.94
2023-03-08T07:46:54.325Z,0.95
2023-03-08T07:49:20.888Z,0.96
2023-03-08T07:51:51.388Z,1.00
2023-03-08T07:54:18.029Z,1.03
2023-03-08T07:56:45.309Z,1.00
2023-03-08T07:59:11.897Z,1.01
2023-03-08T08:01:39.112Z,1.01
2023-03-08T08:04:07.785Z,1.05
2023-03-08T08:06:38.167Z,1.07
2023-03-08T08:09:05.753Z,1.05
2023-03-08T08:11:34.547Z,1.08
2023-03-08T08:14:01.769Z,1.11
2023-03-08T08:16:29.045Z,1.11
2023-03-08T08:18:55.637Z,1.11
2023-03-08T08:21:23.192Z,1.12
2023-03-08T08:23:49.770Z,1.18
2023-03-08T08:26:20.041Z,1.17
2023-03-08T08:28:49.693Z,1.21
2023-03-08T08:31:20.357Z,1.25
2023-03-08T08:33:47.521Z,1.26
2023-03-08T08:36:17.975Z,1.27
2023-03-08T08:38:46.124Z,1.31
2023-03-08T08:41:17.685Z,1.35
2023-03-08T08:43:45.734Z,1.37
2023-03-08T08:46:13.719Z,1.39
2023-03-08T08:48:40.645Z,1.40
2023-03-08T08:51:09.557Z,1.43
2023-03-08T08:53:37.054Z,1.45
2023-03-08T08:56:27.627Z,1.48
2023-03-08T08:58:57.352Z,1.49
2023-03-08T09:01:28.432Z,1.49
2023-03-08T09:03:55.667Z,1.43
2023-03-08T09:06:25.106Z,1.38
2023-03-08T09:08:54.738Z,1.39
2023-03-08T09:11:23.292Z,1.42
2023-03-08T09:13:49.881Z,1.37
2023-03-08T09:16:25.873Z,1.41
2023-03-08T09:18:53.070Z,1.46
2023-03-08T09:21:20.535Z,1.49
2023-03-08T09:23:47.234Z,1.55
2023-03-08T09:26:14.636Z,1.57
2023-03-08T09:28:41.338Z,1.57
2023-03-08T09:31:12.298Z,1.53
2023-03-08T09:33:40.297Z,1.52
2023-03-08T09:36:08.139Z,1.51
2023-03-08T09:38:35.119Z,1.49
2023-03-08T09:41:28.160Z,1.46
2023-03-08T09:44:17.727Z,1.48
2023-03-08T09:46:58.407Z,1.46
2023-03-08T09:49:32.579Z,1.45
2023-03-08T09:52:17.755Z,1.44
2023-03-08T09:54:46.406Z,1.39
2023-03-08T09:57:18.513Z,1.41
2023-03-08T09:59:56.234Z,1.29
2023-03-08T10:03:07.279Z,1.28
2023-03-08T10:05:54.734Z,1.33
2023-03-08T10:08:32.005Z,1.27
2023-03-08T10:11:07.672Z,1.23
2023-03-08T10:13:35.995Z,1.28
2023-03-08T10:16:12.374Z,1.23
2023-03-08T10:18:46.331Z,1.31
2023-03-08T10:21:17.696Z,1.37
2023-03-08T10:23:47.164Z,1.42
2023-03-08T10:26:16.412Z,1.42
2023-03-08T10:28:43.730Z,1.42
2023-03-08T10:31:23.239Z,1.42
2023-03-08T10:34:16.745Z,1.42
2023-03-08T10:36:58.292Z,1.31
2023-03-08T10:39:25.559Z,1.15
2023-03-08T10:41:58.934Z,1.16
2023-03-08T10:44:36.808Z,1.21
2023-03-08T10:47:21.577Z,1.24
2023-03-08T10:49:48.876Z,1.31
2023-03-08T10:52:25.221Z,1.27
2023-03-08T10:55:16.221Z,1.32
2023-03-08T10:57:58.149Z,1.25
2023-03-08T11:00:32.412Z,1.23
2023-03-08T11:03:03.407Z,1.30
2023-03-08T11:05:30.936Z,1.39
2023-03-08T11:07:59.496Z,1.42
2023-03-08T11:10:29.245Z,1.47
2023-03-08T11:13:06.481Z,1.47
2023-03-08T11:15:38.274Z,1.54
2023-03-08T11:18:28.138Z,1.55
2023-03-08T11:21:01.103Z,1.59
2023-03-08T11:23:32.438Z,1.62
2023-03-08T11:26:08.353Z,1.62
2023-03-08T11:28:49.786Z,1.62
2023-03-08T11:31:20.080Z,1.67
2023-03-08T11:34:33.341Z,1.74
2023-03-08T11:37:15.389Z,1.74
2023-03-08T11:39:52.849Z,1.69
2023-03-08T11:42:34.784Z,1.71
2023-03-08T11:45:49.610Z,1.68
2023-03-08T11:48:19.104Z,1.64
2023-03-08T11:51:10.521Z,1.57
2023-03-08T11:54:07.889Z,1.57
2023-03-08T11:56:46.849Z,1.59
2023-03-08T11:59:21.153Z,1.62
2023-03-08T12:01:56.567Z,1.65
2023-03-08T12:04:40.782Z,1.68
2023-03-08T12:07:23.739Z,1.71
2023-03-08T12:10:04.521Z,1.62
2023-03-08T12:12:37.454Z,1.62
2023-03-08T12:15:16.553Z,1.61
2023-03-08T12:17:50.363Z,1.49
2023-03-08T12:20:20.217Z,1.45
2023-03-08T12:22:55.644Z,1.49
2023-03-08T12:25:26.805Z,1.47
2023-03-08T12:27:56.657Z,1.47
2023-03-08T12:30:40.266Z,1.50
2023-03-08T12:33:11.357Z,1.53
2023-03-08T12:35:59.833Z,1.52
2023-03-08T12:38:30.932Z,1.39
2023-03-08T12:40:58.317Z,1.37
2023-03-08T12:43:24.830Z,1.38
2023-03-08T12:46:05.010Z,1.43
2023-03-08T12:48:59.503Z,1.43
2023-03-08T12:51:33.808Z,1.39
2023-03-08T12:54:03.997Z,1.42
2023-03-08T12:56:49.770Z,1.33
2023-03-08T12:59:16.252Z,1.31
2023-03-08T13:02:00.217Z,1.34
2023-03-08T13:04:41.825Z,1.26
2023-03-08T13:07:12.897Z,1.30
2023-03-08T13:09:42.573Z,1.30
2023-03-08T13:12:15.539Z,1.33
2023-03-08T13:14:47.018Z,1.32
2023-03-08T13:17:32.789Z,1.28
2023-03-08T13:20:11.437Z,1.30
2023-03-08T13:23:02.709Z,1.31
2023-03-08T13:25:35.376Z,1.31
2023-03-08T13:28:15.403Z,1.34
2023-03-08T13:30:49.719Z,1.28
2023-03-08T13:33:37.357Z,1.28
2023-03-08T13:36:05.544Z,1.26
2023-03-08T13:38:35.385Z,1.27
2023-03-08T13:41:02.424Z,1.29
2023-03-08T13:43:32.354Z,1.29
2023-03-08T13:46:00.144Z,1.31
2023-03-08T13:48:31.022Z,1.33
2023-03-08T13:50:59.828Z,1.29
2023-03-08T13:53:33.834Z,1.29
2023-03-08T13:56:03.470Z,1.28
2023-03-08T13:58:37.583Z,1.27
2023-03-08T14:01:15.347Z,1.27
2023-03-08T14:03:44.065Z,1.26
2023-03-08T14:06:23.727Z,1.31
2023-03-08T14:08:51.880Z,1.30
2023-03-08T14:11:22.084Z,1.32
2023-03-08T14:13:53.081Z,1.36
2023-03-08T14:16:32.248Z,1.35
2023-03-08T14:19:08.593Z,1.34
2023-03-08T14:21:35.483Z,1.33
2023-03-08T14:24:07.092Z,1.32
2023-03-08T14:26:36.819Z,1.34
2023-03-08T14:29:19.850Z,1.33
2023-03-08T14:31:59.615Z,1.33
2023-03-08T14:34:28.570Z,1.29
2023-03-08T14:37:01.511Z,1.25
2023-03-08T14:39:30.679Z,1.30
2023-03-08T14:41:57.525Z,1.33
2023-03-08T14:44:28.589Z,1.31
2023-03-08T14:46:58.647Z,1.34
2023-03-08T14:49:29.006Z,1.30
2023-03-08T14:51:56.274Z,1.30
2023-03-08T14:54:33.185Z,1.30
2023-03-08T14:57:15.896Z,1.29
2023-03-08T14:59:43.705Z,1.28
2023-03-08T15:02:12.734Z,1.28
2023-03-08T15:04:40.251Z,1.30
2023-03-08T15:07:07.790Z,1.29
2023-03-08T15:09:34.894Z,1.31
2023-03-08T15:12:02.371Z,1.30
2023-03-08T15:14:30.513Z,1.33
2023-03-08T15:16:58.539Z,1.31
2023-03-08T15:19:25.286Z,1.33
2023-03-08T15:21:52.751Z,1.34
2023-03-08T15:24:19.793Z,1.32
2023-03-08T15:26:47.217Z,1.34
2023-03-08T15:29:40.390Z,1.34
2023-03-08T15:32:08.104Z,1.36
2023-03-08T15:34:35.546Z,1.37
2023-03-08T15:37:02.957Z,1.36
2023-03-08T15:39:29.653Z,1.39
2023-03-08T15:41:56.837Z,1.38
2023-03-08T15:44:23.411Z,1.37
2023-03-08T15:46:52.750Z,1.38
2023-03-08T15:49:19.579Z,1.40
2023-03-08T15:51:46.793Z,1.41
2023-03-08T15:54:13.399Z,1.42
2023-03-08T15:56:40.645Z,1.38
2023-03-08T15:59:07.418Z,1.37
2023-03-08T16:01:34.662Z,1.37
2023-03-08T16:04:01.514Z,1.38
2023-03-08T16:06:28.418Z,1.37
2023-03-08T16:08:55.033Z,1.35
2023-03-08T16:11:22.683Z,1.30
2023-03-08T16:13:53.607Z,1.30
2023-03-08T16:16:22.088Z,1.31
2023-03-08T16:18:49.241Z,1.28
2023-03-08T16:21:16.720Z,1.29
2023-03-08T16:23:43.658Z,1.24
2023-03-08T16:26:17.009Z,1.23
2023-03-08T16:28:46.911Z,1.22
2023-03-08T16:31:15.022Z,1.23
2023-03-08T16:33:42.292Z,1.20
2023-03-08T16:36:09.223Z,1.20
2023-03-08T16:38:36.276Z,1.13
2023-03-08T16:41:12.148Z,1.14
2023-03-08T16:43:46.350Z,1.16
2023-03-08T16:46:17.678Z,1.13
2023-03-08T16:48:45.073Z,1.14
2023-03-08T16:51:14.743Z,1.08
2023-03-08T16:53:42.297Z,1.08
2023-03-08T16:56:16.339Z,1.11
2023-03-08T16:58:43.394Z,1.08
2023-03-08T17:01:12.008Z,1.05
2023-03-08T17:03:39.196Z,1.02
2023-03-08T17:06:11.684Z,1.02
2023-03-08T17:08:39.003Z,1.00
2023-03-08T17:11:06.104Z,0.98
2023-03-08T17:13:33.648Z,0.96
2023-03-08T17:16:00.661Z,0.93
2023-03-08T17:18:27.287Z,0.94
2023-03-08T17:20:54.254Z,0.95
2023-03-08T17:23:20.893Z,0.96
2023-03-08T17:25:47.806Z,0.88
2023-03-08T17:28:16.009Z,0.84
2023-03-08T17:30:43.427Z,0.85
2023-03-08T17:33:12.613Z,0.81
2023-03-08T17:35:41.367Z,0.75
2023-03-08T17:38:08.233Z,0.76
2023-03-08T17:40:35.688Z,0.77
2023-03-08T17:43:02.804Z,0.76
2023-03-08T17:45:30.098Z,0.72
2023-03-08T17:48:01.177Z,0.73
2023-03-08T17:50:31.729Z,0.76
2023-03-08T17:52:58.846Z,0.75
2023-03-08T17:55:26.525Z,0.75
2023-03-08T17:57:53.185Z,0.74
2023-03-08T18:00:21.284Z,0.74
2023-03-08T18:02:48.017Z,0.76
2023-03-08T18:05:14.974Z,0.74
2023-03-08T18:07:41.981Z,0.75
2023-03-08T18:10:11.272Z,0.75
2023-03-08T18:12:37.835Z,0.74
2023-03-08T18:15:04.957Z,0.72
2023-03-08T18:17:34.083Z,0.69
2023-03-08T18:20:01.966Z,0.70
2023-03-08T18:22:28.494Z,0.70
2023-03-08T18:24:55.667Z,0.69
2023-03-08T18:27:22.293Z,0.73
2023-03-08T18:29:49.357Z,0.68
2023-03-08T18:32:15.884Z,0.68
2023-03-08T18:34:43.078Z,0.66
2023-03-08T18:37:09.649Z,0.65
2023-03-08T18:39:36.898Z,0.64
2023-03-08T18:42:03.569Z,0.67
2023-03-08T18:44:30.789Z,0.63
2023-03-08T18:46:57.462Z,0.66
2023-03-08T18:49:24.489Z,0.63
2023-03-08T18:51:51.150Z,0.65
2023-03-08T18:54:20.938Z,0.64
2023-03-08T18:56:53.690Z,0.63
2023-03-08T18:59:21.776Z,0.67
2023-03-08T19:01:52.052Z,0.69
2023-03-08T19:04:19.572Z,0.67
2023-03-08T19:06:46.392Z,0.67
2023-03-08T19:09:16.268Z,0.63
2023-03-08T19:11:43.197Z,0.59
2023-03-08T19:14:12.523Z,0.62
2023-03-08T19:16:39.483Z,0.63
2023-03-08T19:19:11.990Z,0.63
2023-03-08T19:21:43.788Z,0.62
2023-03-08T19:24:15.697Z,0.64
2023-03-08T19:26:47.003Z,0.63
2023-03-08T19:29:15.769Z,0.63
2023-03-08T19:31:50.545Z,0.63
2023-03-08T19:34:19.329Z,0.62
2023-03-08T19:36:46.973Z,0.63
2023-03-08T19:39:17.026Z,0.61
2023-03-08T19:41:44.367Z,0.61
2023-03-08T19:44:11.644Z,0.61
2023-03-08T19:46:39.246Z,0.60
2023-03-08T19:49:08.746Z,0.62
2023-03-08T19:51:35.486Z,0.61
2023-03-08T19:54:03.464Z,0.62
2023-03-08T19:56:30.124Z,0.65
2023-03-08T19:58:57.262Z,0.64
2023-03-08T20:01:24.590Z,0.68
2023-03-08T20:03:51.774Z,0.65
2023-03-08T20:06:24.776Z,0.65
2023-03-08T20:08:53.015Z,0.69
2023-03-08T20:11:21.167Z,0.69
2023-03-08T20:13:47.789Z,0.71
2023-03-08T20:16:15.540Z,0.69
2023-03-08T20:18:42.134Z,0.69
2023-03-08T20:21:09.402Z,0.68
2023-03-08T20:23:35.977Z,0.69
2023-03-08T20:26:04.578Z,0.70
2023-03-08T20:28:31.137Z,0.69
2023-03-08T20:30:58.405Z,0.71
2023-03-08T20:33:25.114Z,0.68
2023-03-08T20:35:59.929Z,0.69
2023-03-08T20:38:27.270Z,0.71
2023-03-08T20:41:12.237Z,0.72
2023-03-08T20:43:39.486Z,0.73
2023-03-08T20:46:09.760Z,0.72
2023-03-08T20:48:38.590Z,0.75
2023-03-08T20:51:07.993Z,0.77
2023-03-08T20:53:34.968Z,0.74
2023-03-08T20:56:10.371Z,0.74
2023-03-08T20:58:36.978Z,0.75
2023-03-08T21:01:15.546Z,0.77
2023-03-08T21:03:42.320Z,0.78
2023-03-08T21:06:16.104Z,0.76
2023-03-08T21:08:43.016Z,0.74
2023-03-08T21:11:09.995Z,0.78
2023-03-08T21:13:37.737Z,0.75
2023-03-08T21:16:07.300Z,0.76
2023-03-08T21:18:34.644Z,0.72
2023-03-08T21:21:01.383Z,0.72
2023-03-08T21:23:29.391Z,0.73
2023-03-08T21:26:00.223Z,0.72
2023-03-08T21:28:27.011Z,0.72
